Time;durP1;ratioP1;P1;durP2;ratioP2;P2;SDS_P1;SDS_P2;PMS_P1;PMS_P2;Temp;Humidity;BMP_temperature;BMP_pressure;BME280_temperature;BME280_humidity;BME280_pressure;Samples;Min_cycle;Max_cycle;Signal;HPM_P1;HPM_P2
2022/03/28 00:00:21;;;;;;;0.10;0.10;;;;;;;;;;5115259;27;20213;-72
2022/03/28 00:02:47;;;;;;;0.10;0.10;;;;;;;;;;5152642;27;20207;-71
2022/03/28 00:05:15;;;;;;;0.10;0.10;;;;;;;;;;5114576;27;20518;-70
2022/03/28 00:07:41;;;;;;;0.10;0.10;;;;;;;;;;5156897;27;20378;-72
2022/03/28 00:10:08;;;;;;;0.10;0.10;;;;;;;;;;5116245;27;20209;-72
2022/03/28 00:12:35;;;;;;;0.10;0.10;;;;;;;;;;5158367;27;20492;-72
2022/03/28 00:15:05;;;;;;;0.10;0.10;;;;;;;;;;5126475;28;20292;-72
2022/03/28 00:17:31;;;;;;;0.10;0.10;;;;;;;;;;5114586;28;20224;-71
2022/03/28 00:19:58;;;;;;;0.10;0.10;;;;;;;;;;5126708;28;20557;-74
2022/03/28 00:22:24;;;;;;;0.10;0.10;;;;;;;;;;5148648;27;20444;-72
2022/03/28 00:24:50;;;;;;;0.10;0.10;;;;;;;;;;5126108;28;20273;-72
2022/03/28 00:27:17;;;;;;;0.10;0.10;;;;;;;;;;5148467;27;20414;-71
2022/03/28 00:29:44;;;;;;;0.10;0.10;;;;;;;;;;5126096;28;20405;-72
2022/03/28 00:32:12;;;;;;;0.10;0.10;;;;;;;;;;5148939;27;20276;-71
2022/03/28 00:34:39;;;;;;;0.10;0.10;;;;;;;;;;5125857;27;20241;-72
2022/03/28 00:37:06;;;;;;;0.10;0.10;;;;;;;;;;5148561;27;20247;-71
2022/03/28 00:39:33;;;;;;;0.10;0.10;;;;;;;;;;5125603;28;20285;-73
2022/03/28 00:42:00;;;;;;;0.10;0.10;;;;;;;;;;5146681;27;20273;-72
2022/03/28 00:44:26;;;;;;;0.10;0.10;;;;;;;;;;5127574;27;20279;-72
2022/03/28 00:46:52;;;;;;;0.10;0.10;;;;;;;;;;5144710;27;20277;-71
2022/03/28 00:49:21;;;;;;;0.10;0.10;;;;;;;;;;5129380;27;20236;-72
2022/03/28 00:51:48;;;;;;;0.47;0.47;;;;;;;;;;5143175;27;20247;-72
2022/03/28 00:54:14;;;;;;;0.10;0.10;;;;;;;;;;5126827;27;20280;-73
2022/03/28 00:56:42;;;;;;;0.10;0.10;;;;;;;;;;5141214;27;20241;-72
2022/03/28 00:59:09;;;;;;;0.20;0.20;;;;;;;;;;5131832;27;20332;-71
2022/03/28 01:01:35;;;;;;;0.10;0.10;;;;;;;;;;5139369;27;20235;-72
2022/03/28 01:04:04;;;;;;;0.10;0.10;;;;;;;;;;5133532;27;20202;-72
2022/03/28 01:06:32;;;;;;;0.10;0.10;;;;;;;;;;5137892;27;20285;-72
2022/03/28 01:08:58;;;;;;;0.10;0.10;;;;;;;;;;5134706;27;20498;-72
2022/03/28 01:11:26;;;;;;;0.10;0.10;;;;;;;;;;5136461;27;20254;-72
2022/03/28 01:13:53;;;;;;;0.10;0.10;;;;;;;;;;5136208;27;20256;-71
2022/03/28 01:16:20;;;;;;;0.10;0.10;;;;;;;;;;5134299;27;20236;-72
2022/03/28 01:18:47;;;;;;;0.10;0.10;;;;;;;;;;5137339;27;20392;-71
2022/03/28 01:21:15;;;;;;;0.10;0.10;;;;;;;;;;5133235;27;20243;-72
2022/03/28 01:23:42;;;;;;;0.10;0.10;;;;;;;;;;5138994;27;20272;-72
2022/03/28 01:26:09;;;;;;;0.10;0.10;;;;;;;;;;5131742;27;20252;-72
2022/03/28 01:28:35;;;;;;;0.10;0.10;;;;;;;;;;5140447;27;20210;-72
2022/03/28 01:31:02;;;;;;;0.10;0.10;;;;;;;;;;5129587;27;20249;-72
2022/03/28 01:33:28;;;;;;;0.10;0.10;;;;;;;;;;5142400;27;20205;-72
2022/03/28 01:35:55;;;;;;;0.10;0.10;;;;;;;;;;5128135;27;20252;-71
2022/03/28 01:38:22;;;;;;;0.93;0.93;;;;;;;;;;5143933;27;20229;-72
2022/03/28 01:40:50;;;;;;;0.10;0.10;;;;;;;;;;5126160;27;20243;-71
2022/03/28 01:43:17;;;;;;;0.10;0.10;;;;;;;;;;5145226;27;20242;-72
2022/03/28 01:45:43;;;;;;;0.10;0.10;;;;;;;;;;5124391;27;20241;-72
2022/03/28 01:48:10;;;;;;;0.10;0.10;;;;;;;;;;5146955;27;20557;-72
2022/03/28 01:50:37;;;;;;;0.10;0.10;;;;;;;;;;5122752;27;20614;-72
2022/03/28 01:53:03;;;;;;;0.10;0.10;;;;;;;;;;5148538;27;20205;-71
2022/03/28 01:55:32;;;;;;;0.10;0.10;;;;;;;;;;5120555;27;20243;-73
2022/03/28 01:57:59;;;;;;;0.10;0.10;;;;;;;;;;5150074;27;20204;-73
2022/03/28 02:00:28;;;;;;;0.10;0.10;;;;;;;;;;5119735;27;20298;-73
2022/03/28 02:02:55;;;;;;;0.10;0.10;;;;;;;;;;5150692;27;20205;-73
2022/03/28 02:05:21;;;;;;;0.10;0.10;;;;;;;;;;5118014;27;20216;-71
2022/03/28 02:07:48;;;;;;;0.10;0.10;;;;;;;;;;5152661;27;20261;-72
2022/03/28 02:10:15;;;;;;;0.10;0.10;;;;;;;;;;5116105;27;20198;-71
2022/03/28 02:12:44;;;;;;;0.10;0.10;;;;;;;;;;5154270;27;20220;-73
2022/03/28 02:15:11;;;;;;;0.10;0.10;;;;;;;;;;5114535;27;20221;-71
2022/03/28 02:17:38;;;;;;;0.10;0.10;;;;;;;;;;5155648;27;20238;-71
2022/03/28 02:20:05;;;;;;;0.10;0.10;;;;;;;;;;5121562;27;20505;-72
2022/03/28 02:22:32;;;;;;;0.10;0.10;;;;;;;;;;5139573;27;20547;-72
2022/03/28 02:24:58;;;;;;;0.10;0.10;;;;;;;;;;5124303;28;20363;-72
2022/03/28 02:27:24;;;;;;;0.10;0.10;;;;;;;;;;5146289;27;20247;-73
2022/03/28 02:29:52;;;;;;;0.10;0.10;;;;;;;;;;5123126;27;20225;-71
2022/03/28 02:32:20;;;;;;;0.10;0.10;;;;;;;;;;5146040;27;20299;-71
2022/03/28 02:34:46;;;;;;;0.10;0.10;;;;;;;;;;5123715;28;20248;-71
2022/03/28 02:37:12;;;;;;;0.10;0.10;;;;;;;;;;5146227;27;20471;-71
2022/03/28 02:39:39;;;;;;;0.10;0.10;;;;;;;;;;5123583;28;20228;-72
2022/03/28 02:42:05;;;;;;;0.10;0.10;;;;;;;;;;5146277;27;20247;-72
2022/03/28 02:44:32;;;;;;;0.10;0.10;;;;;;;;;;5123921;28;20205;-71
2022/03/28 02:47:00;;;;;;;0.10;0.10;;;;;;;;;;5144257;27;20240;-71
2022/03/28 02:49:27;;;;;;;0.10;0.10;;;;;;;;;;5124891;27;20244;-72
2022/03/28 02:51:53;;;;;;;0.10;0.10;;;;;;;;;;5143050;27;20236;-73
2022/03/28 02:54:20;;;;;;;0.10;0.10;;;;;;;;;;5126437;27;20267;-72
2022/03/28 02:56:46;;;;;;;0.10;0.10;;;;;;;;;;5140597;27;20600;-74
2022/03/28 02:59:13;;;;;;;0.10;0.10;;;;;;;;;;5128295;27;20213;-72
2022/03/28 03:01:40;;;;;;;0.40;0.40;;;;;;;;;;5138618;27;20250;-71
2022/03/28 03:04:07;;;;;;;0.10;0.10;;;;;;;;;;5130208;27;20237;-71
2022/03/28 03:06:34;;;;;;;0.10;0.10;;;;;;;;;;5137524;27;20239;-71
2022/03/28 03:09:00;;;;;;;0.10;0.10;;;;;;;;;;5131831;27;20200;-72
2022/03/28 03:11:27;;;;;;;0.10;0.10;;;;;;;;;;5135319;27;20244;-72
2022/03/28 03:13:56;;;;;;;0.10;0.10;;;;;;;;;;5133317;27;20209;-71
2022/03/28 03:16:22;;;;;;;0.10;0.10;;;;;;;;;;5134103;27;20244;-71
2022/03/28 03:18:49;;;;;;;0.10;0.10;;;;;;;;;;5134664;27;20251;-71
2022/03/28 03:21:17;;;;;;;0.10;0.10;;;;;;;;;;5132015;27;20305;-72
2022/03/28 03:23:43;;;;;;;0.10;0.10;;;;;;;;;;5136911;27;20204;-71
2022/03/28 03:26:09;;;;;;;0.10;0.10;;;;;;;;;;5130371;27;20245;-72
2022/03/28 03:28:36;;;;;;;0.10;0.10;;;;;;;;;;5138778;27;20202;-72
2022/03/28 03:31:02;;;;;;;0.10;0.10;;;;;;;;;;5127357;27;20289;-72
2022/03/28 03:33:28;;;;;;;0.10;0.10;;;;;;;;;;5140422;27;20201;-71
2022/03/28 03:35:55;;;;;;;0.10;0.10;;;;;;;;;;5125571;27;20242;-70
2022/03/28 03:38:23;;;;;;;0.10;0.10;;;;;;;;;;5142529;27;20240;-72
2022/03/28 03:40:49;;;;;;;0.10;0.10;;;;;;;;;;5127327;27;20435;-72
2022/03/28 03:43:15;;;;;;;0.10;0.10;;;;;;;;;;5147835;27;20231;-71
2022/03/28 03:45:42;;;;;;;0.10;0.10;;;;;;;;;;5126795;27;20236;-72
2022/03/28 03:48:09;;;;;;;0.93;0.93;;;;;;;;;;5149678;27;20247;-71
2022/03/28 03:50:49;;;;;;;0.10;0.10;;;;;;;;;;5124446;27;20323;-72
2022/03/28 03:53:16;;;;;;;0.40;0.40;;;;;;;;;;5147656;27;20222;-72
2022/03/28 03:55:44;;;;;;;0.10;0.10;;;;;;;;;;5126489;27;20232;-72
2022/03/28 03:58:10;;;;;;;0.10;0.10;;;;;;;;;;5148855;27;20239;-72
2022/03/28 04:00:36;;;;;;;0.10;0.10;;;;;;;;;;5123945;27;20242;-72
2022/03/28 04:03:04;;;;;;;0.10;0.10;;;;;;;;;;5151575;27;20220;-72
2022/03/28 04:05:30;;;;;;;0.10;0.10;;;;;;;;;;5122646;27;20249;-72
2022/03/28 04:07:57;;;;;;;0.43;0.43;;;;;;;;;;5152713;27;20619;-72
2022/03/28 04:10:23;;;;;;;0.10;0.10;;;;;;;;;;5120745;27;20207;-71
2022/03/28 04:12:51;;;;;;;0.10;0.10;;;;;;;;;;5154104;27;20531;-72
2022/03/28 04:15:19;;;;;;;0.10;0.10;;;;;;;;;;5118966;27;20203;-71
2022/03/28 04:17:51;;;;;;;0.10;0.10;;;;;;;;;;5155174;27;20462;-71
2022/03/28 04:20:18;;;;;;;0.10;0.10;;;;;;;;;;5118816;27;20285;-71
2022/03/28 04:22:45;;;;;;;0.10;0.10;;;;;;;;;;5156449;27;20228;-71
2022/03/28 04:25:12;;;;;;;0.10;0.10;;;;;;;;;;5116916;27;20221;-71
2022/03/28 04:27:38;;;;;;;0.10;0.10;;;;;;;;;;5157260;27;20202;-71
2022/03/28 04:30:08;;;;;;;0.17;0.17;;;;;;;;;;5125898;27;20259;-70
2022/03/28 04:32:35;;;;;;;0.10;0.10;;;;;;;;;;5114393;28;20207;-71
2022/03/28 04:35:02;;;;;;;0.10;0.10;;;;;;;;;;5125883;28;20232;-71
2022/03/28 04:37:32;;;;;;;0.10;0.10;;;;;;;;;;5148313;27;20246;-72
2022/03/28 04:39:59;;;;;;;0.30;0.30;;;;;;;;;;5125732;28;20303;-71
2022/03/28 04:42:25;;;;;;;0.10;0.10;;;;;;;;;;5148352;27;20290;-72
2022/03/28 04:44:52;;;;;;;0.10;0.10;;;;;;;;;;5125823;28;20265;-71
2022/03/28 04:47:21;;;;;;;0.10;0.10;;;;;;;;;;5148701;27;20242;-72
2022/03/28 04:49:48;;;;;;;0.10;0.10;;;;;;;;;;5125892;28;20386;-71
2022/03/28 04:52:14;;;;;;;0.10;0.10;;;;;;;;;;5147412;27;20257;-72
2022/03/28 04:54:40;;;;;;;0.10;0.10;;;;;;;;;;5125612;28;20196;-72
2022/03/28 04:57:07;;;;;;;0.10;0.10;;;;;;;;;;5148370;27;20238;-72
2022/03/28 04:59:39;;;;;;;0.10;0.10;;;;;;;;;;5125668;28;20310;-72
2022/03/28 05:02:07;;;;;;;0.10;0.10;;;;;;;;;;5148041;27;20591;-72
2022/03/28 05:04:35;;;;;;;0.10;0.10;;;;;;;;;;5125318;28;20215;-71
2022/03/28 05:07:54;;;;;;;0.10;0.10;;;;;;;;;;5146791;27;20473;-71
2022/03/28 05:10:28;;;;;;;0.10;0.10;;;;;;;;;;5118689;27;20267;-72
2022/03/28 05:12:54;;;;;;;0.30;0.30;;;;;;;;;;5151754;27;20240;-71
2022/03/28 05:15:22;;;;;;;0.10;0.10;;;;;;;;;;5118309;27;20404;-71
2022/03/28 05:17:49;;;;;;;0.10;0.10;;;;;;;;;;5153799;27;20218;-72
2022/03/28 05:20:17;;;;;;;0.10;0.10;;;;;;;;;;5117105;27;20227;-71
2022/03/28 05:22:44;;;;;;;0.10;0.10;;;;;;;;;;5154559;27;20250;-72
2022/03/28 05:25:11;;;;;;;0.10;0.10;;;;;;;;;;5116057;27;20300;-71
2022/03/28 05:28:01;;;;;;;2.77;2.67;;;;;;;;;;5156244;27;20222;-72
2022/03/28 05:30:32;;;;;;;0.10;0.10;;;;;;;;;;5120227;27;20241;-71
2022/03/28 05:33:13;;;;;;;0.10;0.10;;;;;;;;;;5150537;27;20271;-72
2022/03/28 05:35:59;;;;;;;0.10;0.10;;;;;;;;;;5123767;27;20241;-72
2022/03/28 05:44:56;;;;;;;0.10;0.10;;;;;;;;;;5122793;28;20432;-72
2022/03/28 05:53:53;;;;;;;0.10;0.10;;;;;;;;;;5122472;28;20200;-71
2022/03/28 05:56:26;;;;;;;0.10;0.10;;;;;;;;;;5111893;28;20247;-71
2022/03/28 05:59:04;;;;;;;0.10;0.10;;;;;;;;;;5122344;28;20202;-72
2022/03/28 06:04:45;;;;;;;0.10;0.10;;;;;;;;;;5124514;28;21020;-72
2022/03/28 06:07:32;;;;;;;0.17;0.17;;;;;;;;;;5146163;27;20260;-71
2022/03/28 06:10:33;;;;;;;0.20;0.20;;;;;;;;;;5124257;28;20282;-72
2022/03/28 06:13:19;;;;;;;0.60;0.60;;;;;;;;;;5137151;27;20189;-73
2022/03/28 06:31:17;;;;;;;0.10;0.10;;;;;;;;;;5051075;28;20262;-73
2022/03/28 06:33:47;;;;;;;0.10;0.10;;;;;;;;;;5030032;28;20233;-73
2022/03/28 06:36:14;;;;;;;0.17;0.17;;;;;;;;;;5063323;28;20259;-71
2022/03/28 06:38:40;;;;;;;0.73;0.73;;;;;;;;;;5071748;28;20552;-72
2022/03/28 06:41:07;;;;;;;0.20;0.20;;;;;;;;;;5062652;28;20235;-72
2022/03/28 06:43:33;;;;;;;0.10;0.10;;;;;;;;;;5072213;28;20207;-71
2022/03/28 06:46:00;;;;;;;0.10;0.10;;;;;;;;;;5059875;28;20545;-73
2022/03/28 06:48:39;;;;;;;0.20;0.20;;;;;;;;;;5091940;28;20243;-72
2022/03/28 06:51:27;;;;;;;0.10;0.10;;;;;;;;;;5061878;28;20236;-72
2022/03/28 06:57:10;;;;;;;0.10;0.10;;;;;;;;;;5083465;28;20240;-72
2022/03/28 06:59:38;;;;;;;0.10;0.10;;;;;;;;;;5024966;28;20478;-68
2022/03/28 07:02:05;;;;;;;0.10;0.10;;;;;;;;;;5030748;28;20399;-69
2022/03/28 07:04:32;;;;;;;0.10;0.10;;;;;;;;;;5023954;28;20206;-68
2022/03/28 07:06:59;;;;;;;0.87;0.87;;;;;;;;;;5046740;28;20542;-68
2022/03/28 07:09:26;;;;;;;0.10;0.10;;;;;;;;;;5041483;28;20339;-67
2022/03/28 07:11:52;;;;;;;0.10;0.10;;;;;;;;;;5028986;28;20243;-67
2022/03/28 07:14:19;;;;;;;0.10;0.10;;;;;;;;;;5042364;28;20263;-68
2022/03/28 07:16:47;;;;;;;0.20;0.20;;;;;;;;;;5032041;28;20239;-67
2022/03/28 07:19:16;;;;;;;0.10;0.10;;;;;;;;;;5047120;28;20210;-68
2022/03/28 07:21:42;;;;;;;0.10;0.10;;;;;;;;;;5031596;28;20244;-67
2022/03/28 07:24:09;;;;;;;0.10;0.10;;;;;;;;;;5047698;28;20309;-68
2022/03/28 07:26:35;;;;;;;0.10;0.10;;;;;;;;;;5030394;28;20571;-68
2022/03/28 07:29:03;;;;;;;0.10;0.10;;;;;;;;;;5048662;28;20204;-69
2022/03/28 07:31:30;;;;;;;0.10;0.10;;;;;;;;;;5046068;28;20459;-68
2022/03/28 07:34:29;;;;;;;0.10;0.10;;;;;;;;;;5049302;28;20270;-67
2022/03/28 07:36:45;;;;;;;0.03;0.03;;;;;;;;;;5048260;28;20247;-68
2022/03/28 07:39:12;;;;;;;0.10;0.10;;;;;;;;;;5047035;28;20208;-69
2022/03/28 07:41:38;;;;;;;0.10;0.10;;;;;;;;;;5014263;28;20386;-68
2022/03/28 07:44:05;;;;;;;0.10;0.10;;;;;;;;;;5047747;28;20204;-68
2022/03/28 07:46:32;;;;;;;0.10;0.10;;;;;;;;;;5013051;28;20263;-68
2022/03/28 07:49:00;;;;;;;0.10;0.10;;;;;;;;;;5048464;28;20491;-68
2022/03/28 07:51:27;;;;;;;0.10;0.10;;;;;;;;;;5012670;28;20246;-69
2022/03/28 07:53:54;;;;;;;0.10;0.10;;;;;;;;;;5049340;28;20211;-69
2022/03/28 07:56:20;;;;;;;0.10;0.10;;;;;;;;;;5044429;28;20317;-70
2022/03/28 07:58:47;;;;;;;0.00;0.00;;;;;;;;;;5050063;28;20384;-70
2022/03/28 08:01:14;;;;;;;0.10;0.10;;;;;;;;;;5043345;28;20235;-69
2022/03/28 08:03:40;;;;;;;0.10;0.10;;;;;;;;;;5100971;28;20201;-69
2022/03/28 08:06:08;;;;;;;0.10;0.10;;;;;;;;;;5085970;28;20238;-68
2022/03/28 08:08:36;;;;;;;0.10;0.10;;;;;;;;;;5112451;28;20359;-70
2022/03/28 08:11:03;;;;;;;0.10;0.10;;;;;;;;;;5085068;28;20240;-68
2022/03/28 08:13:30;;;;;;;0.10;0.10;;;;;;;;;;5078986;28;20206;-68
2022/03/28 08:15:57;;;;;;;0.10;0.10;;;;;;;;;;5067363;28;20313;-70
2022/03/28 08:18:24;;;;;;;0.10;0.10;;;;;;;;;;5096594;28;20392;-70
2022/03/28 08:20:50;;;;;;;0.00;0.00;;;;;;;;;;5082936;28;20248;-69
2022/03/28 08:23:20;;;;;;;0.10;0.10;;;;;;;;;;5097410;28;20236;-70
2022/03/28 08:25:47;;;;;;;0.03;0.03;;;;;;;;;;5098899;28;20335;-69
2022/03/28 08:28:13;;;;;;;0.00;0.00;;;;;;;;;;5097316;28;20323;-69
2022/03/28 08:30:40;;;;;;;0.10;0.10;;;;;;;;;;5081400;28;20244;-67
2022/03/28 08:33:06;;;;;;;0.10;0.10;;;;;;;;;;5098851;28;20192;-67
2022/03/28 08:35:33;;;;;;;0.10;0.10;;;;;;;;;;5080449;28;20296;-69
2022/03/28 08:38:00;;;;;;;0.10;0.10;;;;;;;;;;5116869;28;20418;-69
2022/03/28 08:40:28;;;;;;;0.00;0.00;;;;;;;;;;5062763;28;20455;-69
2022/03/28 08:42:55;;;;;;;0.10;0.10;;;;;;;;;;5100239;28;20247;-68
2022/03/28 08:45:21;;;;;;;0.10;0.10;;;;;;;;;;5078897;28;20238;-69
2022/03/28 08:47:49;;;;;;;1.70;1.60;;;;;;;;;;5101048;28;20235;-67
2022/03/28 08:50:16;;;;;;;0.10;0.10;;;;;;;;;;5077560;28;20251;-68
2022/03/28 08:52:43;;;;;;;0.10;0.10;;;;;;;;;;5084586;28;20205;-69
2022/03/28 08:55:10;;;;;;;0.10;0.10;;;;;;;;;;5093432;28;20286;-68
2022/03/28 08:57:38;;;;;;;0.10;0.10;;;;;;;;;;5102554;28;20275;-67
2022/03/28 09:00:06;;;;;;;0.10;0.10;;;;;;;;;;5088191;28;20493;-68
2022/03/28 09:02:33;;;;;;;0.10;0.10;;;;;;;;;;5080499;28;20437;-70
2022/03/28 09:05:00;;;;;;;0.10;0.10;;;;;;;;;;5125824;28;20210;-68
2022/03/28 09:07:27;;;;;;;0.10;0.10;;;;;;;;;;5131335;27;20242;-69
2022/03/28 09:09:58;;;;;;;0.10;0.10;;;;;;;;;;5124319;28;20200;-69
2022/03/28 09:12:25;;;;;;;0.03;0.03;;;;;;;;;;5148090;27;20247;-68
2022/03/28 09:14:58;;;;;;;0.00;0.00;;;;;;;;;;5125514;28;20420;-68
2022/03/28 09:17:25;;;;;;;0.03;0.03;;;;;;;;;;5148014;27;20237;-68
2022/03/28 09:19:54;;;;;;;0.00;0.00;;;;;;;;;;5124142;28;20240;-68
2022/03/28 09:22:21;;;;;;;0.10;0.10;;;;;;;;;;5131772;27;20525;-69
2022/03/28 09:24:48;;;;;;;0.10;0.10;;;;;;;;;;5107433;28;20205;-70
2022/03/28 09:27:15;;;;;;;0.03;0.03;;;;;;;;;;5132480;27;20305;-69
2022/03/28 09:29:56;;;;;;;0.10;0.10;;;;;;;;;;5125030;28;20340;-68
2022/03/28 09:32:26;;;;;;;0.10;0.10;;;;;;;;;;5147503;27;20499;-67
2022/03/28 09:35:01;;;;;;;0.03;0.03;;;;;;;;;;5124976;28;20243;-69
2022/03/28 09:37:28;;;;;;;0.00;0.00;;;;;;;;;;5129979;27;20311;-70
2022/03/28 09:39:55;;;;;;;0.00;0.00;;;;;;;;;;5123554;28;20281;-75
2022/03/28 09:42:21;;;;;;;0.10;0.10;;;;;;;;;;5131179;27;20253;-73
2022/03/28 09:44:50;;;;;;;0.10;0.10;;;;;;;;;;5124955;28;20224;-74
2022/03/28 09:47:18;;;;;;;0.10;0.10;;;;;;;;;;5147045;27;20496;-74
2022/03/28 09:49:47;;;;;;;0.10;0.10;;;;;;;;;;5123282;28;20513;-74
2022/03/28 09:52:15;;;;;;;0.10;0.10;;;;;;;;;;5146990;27;20230;-76
2022/03/28 09:54:45;;;;;;;0.10;0.10;;;;;;;;;;5123361;28;20203;-73
2022/03/28 09:57:13;;;;;;;0.10;0.10;;;;;;;;;;5147594;27;20360;-71
2022/03/28 09:59:40;;;;;;;0.10;0.10;;;;;;;;;;5124273;28;20276;-74
2022/03/28 10:02:22;;;;;;;0.10;0.10;;;;;;;;;;5146669;27;20228;-69
2022/03/28 10:04:51;;;;;;;0.10;0.10;;;;;;;;;;5124351;28;20202;-69
2022/03/28 10:07:18;;;;;;;0.00;0.00;;;;;;;;;;5146533;27;20271;-68
2022/03/28 10:09:45;;;;;;;0.00;0.00;;;;;;;;;;5122860;28;20201;-74
2022/03/28 10:12:12;;;;;;;0.10;0.10;;;;;;;;;;5146431;27;20240;-70
2022/03/28 10:14:38;;;;;;;0.03;0.03;;;;;;;;;;5123888;28;20203;-70
2022/03/28 10:17:05;;;;;;;0.03;0.03;;;;;;;;;;5132202;27;20237;-72
2022/03/28 10:19:33;;;;;;;0.00;0.00;;;;;;;;;;5123829;28;20218;-73
2022/03/28 10:22:02;;;;;;;0.00;0.00;;;;;;;;;;5131192;27;20432;-74
2022/03/28 10:24:33;;;;;;;0.05;0.05;;;;;;;;;;5123295;27;20226;-75
2022/03/28 10:27:00;;;;;;;0.03;0.03;;;;;;;;;;5131666;27;20577;-78
2022/03/28 10:29:35;;;;;;;0.47;0.47;;;;;;;;;;5124538;28;20202;-80
2022/03/28 10:32:02;;;;;;;0.10;0.10;;;;;;;;;;5134772;27;20258;-78
2022/03/28 10:34:44;;;;;;;0.00;0.00;;;;;;;;;;5124887;27;20261;-76
2022/03/28 10:37:25;;;;;;;0.10;0.10;;;;;;;;;;5131152;27;20235;-73
2022/03/28 10:40:13;;;;;;;0.10;0.10;;;;;;;;;;5123821;28;20213;-76
2022/03/28 10:42:45;;;;;;;0.10;0.10;;;;;;;;;;5122914;28;20256;-76
2022/03/28 10:45:16;;;;;;;0.10;0.10;;;;;;;;;;5114853;27;20230;-78
2022/03/28 10:47:44;;;;;;;0.20;0.20;;;;;;;;;;5137077;27;20233;-78
2022/03/28 10:50:12;;;;;;;0.03;0.03;;;;;;;;;;5112933;27;20431;-76
2022/03/28 10:52:38;;;;;;;0.00;0.00;;;;;;;;;;5138381;27;20194;-76
2022/03/28 10:55:08;;;;;;;0.30;0.30;;;;;;;;;;5119290;27;20458;-74
2022/03/28 10:57:35;;;;;;;0.20;0.20;;;;;;;;;;5138569;28;20216;-73
2022/03/28 11:00:06;;;;;;;0.10;0.10;;;;;;;;;;5123359;28;20259;-70
2022/03/28 11:02:33;;;;;;;0.10;0.10;;;;;;;;;;5077882;28;20228;-69
2022/03/28 11:05:06;;;;;;;2.60;2.45;;;;;;;;;;5122171;28;20212;-70
2022/03/28 11:07:33;;;;;;;0.20;0.20;;;;;;;;;;5111388;28;20206;-69
2022/03/28 11:10:02;;;;;;;0.10;0.10;;;;;;;;;;5122096;28;20231;-69
2022/03/28 11:12:31;;;;;;;0.00;0.00;;;;;;;;;;5128568;27;20233;-68
2022/03/28 11:14:58;;;;;;;0.00;0.00;;;;;;;;;;5123160;28;20254;-68
2022/03/28 11:17:26;;;;;;;0.10;0.10;;;;;;;;;;5128811;27;20236;-70
2022/03/28 11:20:02;;;;;;;0.00;0.00;;;;;;;;;;5122991;28;20198;-69
2022/03/28 11:22:44;;;;;;;0.73;0.73;;;;;;;;;;5128250;27;20237;-69
2022/03/28 11:25:26;;;;;;;0.00;0.00;;;;;;;;;;5112774;27;20219;-69
2022/03/28 11:27:52;;;;;;;0.20;0.20;;;;;;;;;;5135049;28;20198;-69
2022/03/28 11:30:18;;;;;;;0.00;0.00;;;;;;;;;;5115604;27;20229;-70
2022/03/28 11:32:49;;;;;;;0.00;0.00;;;;;;;;;;5137286;28;20194;-69
2022/03/28 11:35:16;;;;;;;0.00;0.00;;;;;;;;;;5113652;27;20221;-69
2022/03/28 11:37:43;;;;;;;0.00;0.00;;;;;;;;;;5153591;27;20221;-70
2022/03/28 11:40:10;;;;;;;0.00;0.00;;;;;;;;;;5113695;27;20206;-69
2022/03/28 11:42:37;;;;;;;0.00;0.00;;;;;;;;;;5137879;28;20285;-70
2022/03/28 11:45:05;;;;;;;0.00;0.00;;;;;;;;;;5121840;28;20244;-70
2022/03/28 11:47:31;;;;;;;0.00;0.00;;;;;;;;;;5094123;28;20225;-71
2022/03/28 11:50:01;;;;;;;0.00;0.00;;;;;;;;;;5123241;28;20205;-71
2022/03/28 11:52:29;;;;;;;0.10;0.10;;;;;;;;;;5128188;27;20236;-70
2022/03/28 11:54:56;;;;;;;0.10;0.10;;;;;;;;;;5121594;28;20297;-70
2022/03/28 12:05:12;;;;;;;0.00;0.00;;;;;;;;;;5117480;27;20193;-69
2022/03/28 12:07:40;;;;;;;0.00;0.00;;;;;;;;;;5157733;27;20198;-68
2022/03/28 12:10:09;;;;;;;0.00;0.00;;;;;;;;;;5114962;27;20202;-69
2022/03/28 12:12:35;;;;;;;0.10;0.10;;;;;;;;;;5141873;27;20227;-71
2022/03/28 12:15:03;;;;;;;0.10;0.10;;;;;;;;;;5124957;28;20273;-69
2022/03/28 12:17:30;;;;;;;0.00;0.00;;;;;;;;;;5131301;27;20245;-70
2022/03/28 12:20:05;;;;;;;0.00;0.00;;;;;;;;;;5124920;28;20202;-77
2022/03/28 12:22:45;;;;;;;0.00;0.00;;;;;;;;;;5081379;28;20225;-73
2022/03/28 12:25:22;;;;;;;0.00;0.00;;;;;;;;;;5117370;27;20213;-75
2022/03/28 12:27:51;;;;;;;0.00;0.00;;;;;;;;;;5139154;27;20205;-77
2022/03/28 12:30:18;;;;;;;0.00;0.00;;;;;;;;;;5117392;27;20581;-75
2022/03/28 12:32:45;;;;;;;0.00;0.00;;;;;;;;;;5122782;28;20273;-74
2022/03/28 12:35:11;;;;;;;0.00;0.00;;;;;;;;;;5115112;27;20568;-74
2022/03/28 12:37:39;;;;;;;0.10;0.10;;;;;;;;;;5140821;27;20208;-74
2022/03/28 12:40:06;;;;;;;5.10;4.78;;;;;;;;;;5118053;27;20258;-77
2022/03/28 12:42:34;;;;;;;0.00;0.00;;;;;;;;;;5141427;27;20240;-76
2022/03/28 12:45:00;;;;;;;0.00;0.00;;;;;;;;;;5124448;28;20280;-74
2022/03/28 12:47:27;;;;;;;0.00;0.00;;;;;;;;;;5148456;27;20245;-76
2022/03/28 12:49:55;;;;;;;0.00;0.00;;;;;;;;;;5107695;28;20252;-72
2022/03/28 12:52:24;;;;;;;0.00;0.00;;;;;;;;;;5148069;27;20555;-75
2022/03/28 12:54:56;;;;;;;0.00;0.00;;;;;;;;;;5125480;28;20262;-74
2022/03/28 12:57:25;;;;;;;0.00;0.00;;;;;;;;;;5147984;27;20239;-72
2022/03/28 12:59:53;;;;;;;0.00;0.00;;;;;;;;;;5107411;28;20203;-69
2022/03/28 13:02:21;;;;;;;0.00;0.00;;;;;;;;;;5147925;27;20240;-68
2022/03/28 13:04:49;;;;;;;0.32;0.32;;;;;;;;;;5124276;28;20208;-69
2022/03/28 13:07:18;;;;;;;0.20;0.20;;;;;;;;;;5132564;27;20494;-68
2022/03/28 13:09:53;;;;;;;0.00;0.00;;;;;;;;;;5107108;28;20214;-69
2022/03/28 13:12:34;;;;;;;0.00;0.00;;;;;;;;;;5131074;27;20231;-68
2022/03/28 13:15:01;;;;;;;0.00;0.00;;;;;;;;;;5124097;28;20481;-69
2022/03/28 13:17:28;;;;;;;3.95;0.95;;;;;;;;;;5130584;27;20330;-68
2022/03/28 13:19:55;;;;;;;0.25;0.25;;;;;;;;;;5106948;28;20208;-68
2022/03/28 13:22:26;;;;;;;0.00;0.00;;;;;;;;;;5131342;27;20247;-69
2022/03/28 13:25:05;;;;;;;0.00;0.00;;;;;;;;;;5123646;28;20200;-68
2022/03/28 13:35:08;;;;;;;0.00;0.00;;;;;;;;;;5113606;27;20480;-66
2022/03/28 13:37:34;;;;;;;0.00;0.00;;;;;;;;;;5156850;27;20199;-67
2022/03/28 13:40:01;;;;;;;0.00;0.00;;;;;;;;;;5123567;28;20231;-68
2022/03/28 13:42:27;;;;;;;0.00;0.00;;;;;;;;;;5130027;27;20232;-67
2022/03/28 13:44:55;;;;;;;0.00;0.00;;;;;;;;;;5106440;28;20215;-66
2022/03/28 13:47:22;;;;;;;0.00;0.00;;;;;;;;;;5131016;27;20245;-66
2022/03/28 13:49:49;;;;;;;11.45;10.70;;;;;;;;;;5122968;28;20246;-67
2022/03/28 13:52:15;;;;;;;0.10;0.10;;;;;;;;;;5131656;27;20273;-67
2022/03/28 13:54:42;;;;;;;0.00;0.00;;;;;;;;;;5106138;28;20285;-68
2022/03/28 13:57:09;;;;;;;0.03;0.03;;;;;;;;;;5131983;27;20245;-67
2022/03/28 13:59:35;;;;;;;0.08;0.08;;;;;;;;;;5122928;28;20212;-67
2022/03/28 14:02:03;;;;;;;0.03;0.03;;;;;;;;;;5145511;27;20237;-69
2022/03/28 14:04:29;;;;;;;0.00;0.00;;;;;;;;;;5124728;27;20552;-68
2022/03/28 14:06:56;;;;;;;0.00;0.00;;;;;;;;;;5131062;27;20238;-66
2022/03/28 14:09:22;;;;;;;0.00;0.00;;;;;;;;;;5123706;27;20483;-67
2022/03/28 14:11:49;;;;;;;0.00;0.00;;;;;;;;;;5130198;27;20448;-69
2022/03/28 14:14:15;;;;;;;0.00;0.00;;;;;;;;;;5128161;27;20216;-67
2022/03/28 14:16:42;;;;;;;0.10;0.10;;;;;;;;;;5139606;27;20264;-66
2022/03/28 14:19:11;;;;;;;0.05;0.05;;;;;;;;;;5129883;27;20201;-66
2022/03/28 14:21:38;;;;;;;0.13;0.13;;;;;;;;;;5138154;27;20341;-70
2022/03/28 14:24:05;;;;;;;0.00;0.00;;;;;;;;;;5108128;28;20203;-67
2022/03/28 14:26:32;;;;;;;0.10;0.10;;;;;;;;;;5136154;27;20306;-70
2022/03/28 14:28:59;;;;;;;0.10;0.10;;;;;;;;;;5132392;27;20213;-72
2022/03/28 14:31:25;;;;;;;0.10;0.10;;;;;;;;;;5109211;27;20325;-73
2022/03/28 14:33:52;;;;;;;0.00;0.00;;;;;;;;;;5127651;27;20236;-71
2022/03/28 14:36:20;;;;;;;0.10;0.10;;;;;;;;;;5108123;27;20280;-72
2022/03/28 14:38:47;;;;;;;3.13;2.45;;;;;;;;;;5128200;27;20201;-72
2022/03/28 14:41:14;;;;;;;0.50;0.50;;;;;;;;;;5131803;27;20249;-70
2022/03/28 14:43:41;;;;;;;0.10;0.10;;;;;;;;;;5111926;28;20273;-71
2022/03/28 14:53:40;;;;;;;0.00;0.00;;;;;;;;;;5129011;27;20284;-67
2022/03/28 14:56:07;;;;;;;0.00;0.00;;;;;;;;;;5123332;27;20255;-69
2022/03/28 14:58:33;;;;;;;0.10;0.10;;;;;;;;;;5112846;28;20245;-69
2022/03/28 15:01:00;;;;;;;0.00;0.00;;;;;;;;;;5127601;27;20464;-68
2022/03/28 15:03:26;;;;;;;0.00;0.00;;;;;;;;;;5113800;28;20550;-71
2022/03/28 15:05:53;;;;;;;0.05;0.05;;;;;;;;;;5120867;27;20431;-69
2022/03/28 15:08:20;;;;;;;0.00;0.00;;;;;;;;;;5114748;28;20208;-68
2022/03/28 15:10:48;;;;;;;0.00;0.00;;;;;;;;;;5103393;27;20239;-68
2022/03/28 15:13:16;;;;;;;0.10;0.10;;;;;;;;;;5132449;28;20353;-68
2022/03/28 15:15:42;;;;;;;0.00;0.00;;;;;;;;;;5103014;27;20613;-67
2022/03/28 15:18:09;;;;;;;0.00;0.00;;;;;;;;;;5133147;28;20200;-68
2022/03/28 15:20:37;;;;;;;0.00;0.00;;;;;;;;;;5101592;27;20245;-68
2022/03/28 15:23:03;;;;;;;0.00;0.00;;;;;;;;;;5134268;28;20235;-68
2022/03/28 15:25:30;;;;;;;0.00;0.00;;;;;;;;;;5117980;27;20308;-69
2022/03/28 15:27:58;;;;;;;0.00;0.00;;;;;;;;;;5149360;27;20192;-74
2022/03/28 15:30:25;;;;;;;0.08;0.08;;;;;;;;;;5116756;27;20245;-76
2022/03/28 15:32:52;;;;;;;0.00;0.00;;;;;;;;;;5118949;28;20208;-76
2022/03/28 15:35:19;;;;;;;0.00;0.00;;;;;;;;;;5098008;27;20530;-76
2022/03/28 15:37:46;;;;;;;0.03;0.03;;;;;;;;;;5156228;27;20202;-75
2022/03/28 15:40:13;;;;;;;0.00;0.00;;;;;;;;;;5118506;27;20241;-75
2022/03/28 15:42:40;;;;;;;0.10;0.10;;;;;;;;;;5157461;27;20520;-76
2022/03/28 15:45:09;;;;;;;0.00;0.00;;;;;;;;;;5098479;27;20274;-74
2022/03/28 15:47:37;;;;;;;0.00;0.00;;;;;;;;;;5158808;27;20262;-76